createdAt,value
2023-01-15T00:00:18.085Z,0.20
2023-01-15T00:06:19.980Z,0.30
2023-01-15T00:12:21.473Z,0.43
2023-01-15T00:18:22.918Z,0.40
2023-01-15T00:24:43.034Z,0.20
2023-01-15T00:30:44.612Z,0.43
2023-01-15T00:36:46.384Z,0.50
2023-01-15T00:42:54.038Z,0.50
2023-01-15T00:48:56.238Z,0.40
2023-01-15T00:54:57.725Z,0.40
2023-01-15T01:01:00.945Z,0.47
2023-01-15T01:07:03.084Z,0.50
2023-01-15T01:13:04.670Z,0.40
2023-01-15T01:19:08.732Z,0.50
2023-01-15T01:25:10.374Z,0.30
2023-01-15T01:31:11.872Z,0.40
2023-01-15T01:37:14.836Z,0.40
2023-01-15T01:43:20.953Z,0.30
2023-01-15T01:49:23.580Z,0.30
2023-01-15T01:55:26.475Z,0.40
2023-01-15T02:01:28.306Z,0.40
2023-01-15T02:07:33.164Z,0.30
2023-01-15T02:13:39.308Z,0.60
2023-01-15T02:19:48.690Z,0.30
2023-01-15T02:26:06.831Z,0.40
2023-01-15T02:32:10.544Z,0.40
2023-01-15T02:38:16.545Z,0.40
2023-01-15T02:44:22.988Z,0.50
2023-01-15T02:50:31.643Z,0.50
2023-01-15T02:56:36.033Z,0.30
2023-01-15T03:02:55.718Z,0.30
2023-01-15T03:08:57.380Z,0.38
2023-01-15T03:15:07.167Z,0.30
2023-01-15T03:21:13.168Z,0.40
2023-01-15T03:27:15.493Z,0.40
2023-01-15T03:33:21.174Z,0.30
2023-01-15T03:39:24.413Z,0.30
2023-01-15T03:45:32.944Z,0.40
2023-01-15T03:51:38.846Z,0.40
2023-01-15T03:57:49.803Z,0.63
2023-01-15T04:03:51.655Z,0.50
2023-01-15T04:09:57.546Z,0.40
2023-01-15T04:15:59.479Z,0.40
2023-01-15T04:22:01.195Z,0.73
2023-01-15T04:28:02.700Z,0.40
2023-01-15T04:34:04.505Z,0.30
2023-01-15T04:40:06.339Z,0.30
2023-01-15T04:46:07.879Z,0.50
2023-01-15T04:52:09.372Z,1.33
2023-01-15T04:58:10.949Z,1.00
2023-01-15T05:04:12.453Z,0.70
2023-01-15T05:10:14.194Z,0.73
2023-01-15T05:16:17.115Z,0.77
2023-01-15T05:22:18.731Z,0.82
2023-01-15T05:28:20.228Z,1.10
2023-01-15T05:34:21.666Z,1.40
2023-01-15T05:40:23.095Z,1.33
2023-01-15T05:46:24.739Z,1.00
2023-01-15T05:52:26.183Z,0.60
2023-01-15T05:58:27.633Z,0.73
2023-01-15T06:04:29.147Z,0.60
2023-01-15T06:10:30.682Z,0.73
2023-01-15T06:16:32.842Z,0.67
2023-01-15T06:22:34.373Z,0.77
2023-01-15T06:28:35.814Z,0.90
2023-01-15T06:34:37.387Z,0.60
2023-01-15T06:40:39.625Z,0.63
2023-01-15T06:47:02.809Z,0.70
2023-01-15T06:53:04.280Z,0.77
2023-01-15T06:59:05.741Z,0.52
2023-01-15T07:05:07.731Z,0.50
2023-01-15T07:11:09.569Z,0.30
2023-01-15T07:17:11.182Z,0.30
2023-01-15T07:23:12.600Z,0.45
2023-01-15T07:29:14.159Z,0.30
2023-01-15T07:35:15.709Z,0.37
2023-01-15T07:41:35.669Z,0.35
2023-01-15T07:47:57.429Z,0.30
2023-01-15T07:53:58.882Z,0.40
2023-01-15T08:00:00.355Z,0.35
2023-01-15T08:06:01.838Z,0.37
2023-01-15T08:12:22.522Z,0.50
2023-01-15T08:18:23.976Z,0.40
2023-01-15T08:24:25.523Z,0.20
2023-01-15T08:30:27.023Z,0.35
2023-01-15T08:36:28.531Z,0.30
2023-01-15T08:42:29.962Z,0.30
2023-01-15T08:48:32.237Z,0.30
2023-01-15T08:54:33.708Z,0.30
2023-01-15T09:00:35.161Z,0.40
2023-01-15T09:06:37.654Z,0.40
2023-01-15T09:12:39.146Z,0.40
2023-01-15T09:18:41.400Z,0.43
2023-01-15T09:24:42.944Z,0.35
2023-01-15T09:30:44.569Z,0.35
2023-01-15T09:36:46.623Z,0.30
2023-01-15T09:42:52.682Z,0.40
2023-01-15T09:49:11.479Z,0.40
2023-01-15T09:55:18.156Z,0.30
2023-01-15T10:01:24.440Z,0.30
2023-01-15T10:07:41.458Z,0.37
2023-01-15T10:13:49.033Z,0.40
2023-01-15T10:19:51.249Z,0.40
2023-01-15T10:25:57.359Z,0.40
2023-01-15T10:32:14.180Z,0.60
2023-01-15T10:38:23.036Z,0.20
2023-01-15T10:44:51.062Z,0.43
2023-01-15T10:50:53.877Z,0.30
2023-01-15T10:57:01.997Z,0.30
2023-01-15T11:03:08.209Z,0.50
2023-01-15T11:09:17.876Z,0.30
2023-01-15T11:15:42.878Z,0.50
2023-01-15T11:21:44.466Z,0.40
2023-01-15T11:27:49.381Z,0.40
2023-01-15T11:34:01.361Z,0.40
2023-01-15T11:40:06.657Z,0.40
2023-01-15T11:46:49.744Z,0.40
2023-01-15T11:52:54.941Z,0.43
2023-01-15T11:58:57.936Z,0.35
2023-01-15T12:05:00.606Z,0.50
2023-01-15T12:11:26.805Z,0.50
2023-01-15T12:17:37.475Z,0.30
2023-01-15T12:23:48.115Z,0.33
2023-01-15T12:29:53.319Z,0.40
2023-01-15T12:35:58.697Z,0.40
2023-01-15T12:42:24.877Z,0.20
2023-01-15T12:48:42.980Z,0.30
2023-01-15T12:54:49.352Z,0.33
2023-01-15T13:00:56.435Z,0.22
2023-01-15T13:07:03.198Z,0.20
2023-01-15T13:13:16.507Z,0.37
2023-01-15T13:19:18.723Z,0.30
2023-01-15T13:25:21.065Z,0.40
2023-01-15T13:31:41.964Z,0.50
2023-01-15T13:37:45.507Z,0.30
2023-01-15T13:43:47.969Z,0.30
2023-01-15T13:49:59.918Z,0.45
2023-01-15T13:56:06.019Z,0.30
2023-01-15T14:02:23.472Z,0.35
2023-01-15T14:08:27.597Z,0.30
2023-01-15T14:14:36.017Z,0.40
2023-01-15T14:20:44.488Z,0.30
2023-01-15T14:27:15.728Z,0.30
2023-01-15T14:33:28.814Z,0.40
2023-01-15T14:39:33.693Z,0.30
2023-01-15T14:45:36.406Z,0.40
2023-01-15T14:51:50.278Z,0.40
2023-01-15T14:58:16.080Z,0.40
2023-01-15T15:04:32.869Z,0.43
2023-01-15T15:10:37.896Z,0.60
2023-01-15T15:16:45.131Z,0.30
2023-01-15T15:22:48.274Z,0.40
2023-01-15T15:29:04.666Z,0.47
2023-01-15T15:35:19.752Z,0.35
2023-01-15T15:41:42.840Z,0.50
2023-01-15T15:48:03.488Z,0.40
2023-01-15T15:54:22.030Z,0.60
2023-01-15T16:00:28.570Z,0.53
2023-01-15T16:06:31.437Z,0.45
2023-01-15T16:12:34.567Z,0.65
2023-01-15T16:18:41.112Z,0.70
2023-01-15T16:24:52.681Z,0.60
2023-01-15T16:30:56.247Z,0.50
2023-01-15T16:36:59.442Z,0.70
2023-01-15T16:43:09.687Z,0.50
2023-01-15T16:49:23.950Z,0.70
2023-01-15T16:55:45.445Z,0.60
2023-01-15T17:01:48.616Z,0.70
2023-01-15T17:07:52.078Z,0.60
2023-01-15T17:14:10.774Z,0.45
2023-01-15T17:20:13.582Z,0.60
2023-01-15T17:26:22.934Z,0.60
2023-01-15T17:32:32.624Z,1.10
2023-01-15T17:38:34.726Z,0.65
2023-01-15T17:44:36.771Z,0.70
2023-01-15T17:50:41.133Z,0.50
2023-01-15T17:57:01.538Z,0.75
2023-01-15T18:03:22.490Z,1.00
2023-01-15T18:09:24.783Z,0.90
2023-01-15T18:15:27.084Z,1.13
2023-01-15T18:21:29.197Z,0.90
2023-01-15T18:27:31.369Z,1.20
2023-01-15T18:33:34.022Z,0.90
2023-01-15T18:39:37.360Z,0.90
2023-01-15T18:45:58.117Z,1.00
2023-01-15T18:52:18.551Z,1.20
2023-01-15T18:58:20.609Z,1.02
2023-01-15T19:04:23.079Z,1.80
2023-01-15T19:10:25.179Z,0.70
2023-01-15T19:16:46.360Z,0.90
2023-01-15T19:23:06.483Z,0.90
2023-01-15T19:29:08.579Z,1.00
2023-01-15T19:35:10.936Z,0.80
2023-01-15T19:41:31.815Z,0.90
2023-01-15T19:47:54.008Z,0.90
2023-01-15T19:53:56.315Z,1.00
2023-01-15T19:59:58.391Z,0.80
2023-01-15T20:06:00.475Z,0.60
2023-01-15T20:12:21.424Z,0.82
2023-01-15T20:18:23.843Z,0.82
2023-01-15T20:24:26.127Z,0.83
2023-01-15T20:30:28.750Z,0.70
2023-01-15T20:36:34.339Z,0.80
2023-01-15T20:42:55.157Z,0.60
2023-01-15T20:49:16.342Z,0.70
2023-01-15T20:55:19.026Z,0.60
2023-01-15T21:01:21.549Z,0.50
2023-01-15T21:07:24.614Z,0.80
2023-01-15T21:13:26.680Z,0.82
2023-01-15T21:19:28.713Z,0.73
2023-01-15T21:25:30.729Z,0.93
2023-01-15T21:31:32.668Z,0.50
2023-01-15T21:37:34.541Z,0.83
2023-01-15T21:43:55.307Z,0.82
2023-01-15T21:49:56.941Z,0.82
2023-01-15T21:55:58.533Z,0.80
2023-01-15T22:02:00.955Z,0.82
2023-01-15T22:08:04.738Z,0.73
2023-01-15T22:14:06.186Z,0.70
2023-01-15T22:20:08.346Z,0.80
2023-01-15T22:26:30.647Z,0.77
2023-01-15T22:32:32.087Z,0.80
2023-01-15T22:38:35.140Z,0.80
2023-01-15T22:44:37.081Z,0.50
2023-01-15T22:50:38.533Z,0.80
2023-01-15T22:56:40.053Z,0.50
2023-01-15T23:03:04.644Z,0.70
2023-01-15T23:09:06.199Z,0.70
2023-01-15T23:15:09.039Z,0.70
2023-01-15T23:21:12.363Z,0.60
2023-01-15T23:27:14.006Z,0.70
2023-01-15T23:33:15.465Z,0.70
2023-01-15T23:39:16.972Z,0.73
2023-01-15T23:45:37.120Z,0.77
2023-01-15T23:51:38.657Z,0.73
2023-01-15T23:57:40.100Z,0.83
